Авиационная погода в Куусамо

Регион: 
Погода METAR: 
EFKS 290120Z AUTO 17010KT 9999 -RA BKN005 OVC025 05/05 Q0997
Время наблюдения
2020-10-29T01:20:00Z
Температура C
5.0
Точка росы
5.0
Направление ветра
170
Скорость ветра (узлы)
10
Метео видимость
6.21
Явления погоды
-RA
Условия полета
IFR